Time;durP1;ratioP1;P1;durP2;ratioP2;P2;SDS_P1;SDS_P2;PMS_P1;PMS_P2;Temp;Humidity;BMP_temperature;BMP_pressure;BME280_temperature;BME280_humidity;BME280_pressure;Samples;Min_cycle;Max_cycle;Signal;HPM_P1;HPM_P2
2024/04/01 00:01:10;;;;;;;1.00;0.30;;;14.10;99.90;;;;;;5118955;28;20522;-56
2024/04/01 00:03:36;;;;;;;1.20;0.30;;;13.90;99.90;;;;;;5118141;28;20474;-57
2024/04/01 00:06:03;;;;;;;0.93;0.30;;;13.90;1.00;;;;;;5117532;28;20456;-57
2024/04/01 00:08:29;;;;;;;3.30;0.20;;;13.90;1.00;;;;;;5116901;28;20800;-57
2024/04/01 00:10:56;;;;;;;0.47;0.30;;;14.00;1.00;;;;;;5137957;27;20439;-57
2024/04/01 00:13:22;;;;;;;0.90;0.37;;;13.90;1.00;;;;;;5138522;27;20516;-57
2024/04/01 00:15:51;;;;;;;0.80;0.20;;;13.80;1.00;;;;;;5138579;27;20876;-57
2024/04/01 00:18:17;;;;;;;0.47;0.20;;;13.60;1.00;;;;;;5138488;27;20446;-57
2024/04/01 00:20:44;;;;;;;1.53;0.27;;;13.50;1.00;;;;;;5121681;27;20444;-58
2024/04/01 00:23:10;;;;;;;0.40;0.20;;;13.40;1.00;;;;;;5137394;27;20432;-58
2024/04/01 00:25:37;;;;;;;0.50;0.10;;;13.50;1.00;;;;;;5138300;27;21100;-58
2024/04/01 00:28:04;;;;;;;0.50;0.20;;;13.60;1.00;;;;;;5138185;27;20484;-60
2024/04/01 00:30:32;;;;;;;1.13;0.43;;;13.60;1.00;;;;;;5139115;27;20504;-58
2024/04/01 00:33:00;;;;;;;1.03;0.20;;;13.50;1.00;;;;;;5139521;27;20780;-58
2024/04/01 00:35:27;;;;;;;0.30;0.10;;;13.50;1.00;;;;;;5139011;27;20448;-59
2024/04/01 00:37:53;;;;;;;0.40;0.20;;;13.50;1.00;;;;;;5138846;27;20733;-58
2024/04/01 00:40:20;;;;;;;0.40;0.20;;;13.50;1.00;;;;;;5138712;27;20452;-59
2024/04/01 00:42:46;;;;;;;0.93;0.30;;;13.30;1.00;;;;;;5137391;27;20481;-58
2024/04/01 00:45:15;;;;;;;2.10;0.20;;;13.40;1.00;;;;;;5135375;27;20703;-58
2024/04/01 00:47:41;;;;;;;1.37;0.20;;;13.50;1.00;;;;;;5115832;27;20487;-58
2024/04/01 00:50:09;;;;;;;0.40;0.20;;;13.60;1.00;;;;;;5124494;27;20665;-59
2024/04/01 00:52:36;;;;;;;0.30;0.10;;;13.60;1.00;;;;;;5138312;27;20737;-58
2024/04/01 00:55:03;;;;;;;0.90;0.20;;;13.60;1.00;;;;;;5138332;27;20452;-59
2024/04/01 00:57:30;;;;;;;1.80;0.20;;;13.50;1.00;;;;;;5138889;27;20848;-58
2024/04/01 00:59:57;;;;;;;0.50;0.20;;;13.40;1.00;;;;;;5138751;27;20455;-59
2024/04/01 01:02:23;;;;;;;0.30;0.20;;;13.40;1.00;;;;;;5136775;27;20447;-58
2024/04/01 01:04:51;;;;;;;0.93;0.30;;;13.40;1.00;;;;;;5139124;27;20443;-57
2024/04/01 01:07:20;;;;;;;1.13;0.30;;;13.30;1.00;;;;;;5138525;27;20455;-57
2024/04/01 01:09:48;;;;;;;1.10;0.30;;;13.20;1.00;;;;;;5138770;27;20519;-58
2024/04/01 01:12:14;;;;;;;1.00;0.23;;;13.10;1.00;;;;;;5139608;27;20504;-58
2024/04/01 01:14:41;;;;;;;3.43;0.40;;;13.10;1.00;;;;;;5139091;27;20447;-57
2024/04/01 01:17:07;;;;;;;0.70;0.23;;;13.00;1.00;;;;;;5138843;27;20444;-58
2024/04/01 01:19:34;;;;;;;0.90;0.20;;;12.90;1.00;;;;;;5139234;27;20448;-58
2024/04/01 01:22:05;;;;;;;3.13;0.30;;;12.90;1.00;;;;;;5136942;27;20447;-59
2024/04/01 01:24:34;;;;;;;1.07;0.30;;;12.90;1.00;;;;;;5117675;28;20453;-58
2024/04/01 01:27:00;;;;;;;0.57;0.20;;;13.00;1.00;;;;;;5117842;28;20453;-58
2024/04/01 01:29:29;;;;;;;1.67;0.20;;;13.00;1.00;;;;;;5118416;28;20897;-58
2024/04/01 01:31:58;;;;;;;0.40;0.20;;;13.00;1.00;;;;;;5119952;27;20444;-58
2024/04/01 01:34:26;;;;;;;0.90;0.30;;;12.90;1.00;;;;;;5129901;27;20551;-57
2024/04/01 01:36:53;;;;;;;0.40;0.20;;;12.80;1.00;;;;;;5138490;27;20755;-57
2024/04/01 01:39:20;;;;;;;0.70;0.20;;;12.70;1.00;;;;;;5131390;27;20711;-57
2024/04/01 01:41:47;;;;;;;0.40;0.20;;;12.80;1.00;;;;;;5118206;28;20441;-58
2024/04/01 01:44:14;;;;;;;0.60;0.20;;;13.00;1.00;;;;;;5127701;27;20518;-62
2024/04/01 01:46:40;;;;;;;0.47;0.20;;;13.00;1.00;;;;;;5138311;27;20451;-58
2024/04/01 01:49:07;;;;;;;1.43;0.20;;;13.00;1.00;;;;;;5137536;27;20582;-58
2024/04/01 01:51:34;;;;;;;0.40;0.20;;;12.80;1.00;;;;;;5130489;27;20440;-58
2024/04/01 01:54:01;;;;;;;1.13;0.30;;;12.70;1.00;;;;;;5117707;27;20813;-58
2024/04/01 01:56:27;;;;;;;0.60;0.23;;;12.80;1.00;;;;;;5118607;27;20716;-57
2024/04/01 01:58:55;;;;;;;0.67;0.30;;;12.80;1.00;;;;;;5116836;27;20429;-59
2024/04/01 02:01:21;;;;;;;0.40;0.23;;;12.70;1.00;;;;;;5117227;27;20444;-57
2024/04/01 02:03:48;;;;;;;0.40;0.20;;;12.60;1.00;;;;;;5117199;27;20440;-58
2024/04/01 02:06:15;;;;;;;6.13;0.30;;;12.50;1.00;;;;;;5132019;27;20535;-58
2024/04/01 02:08:42;;;;;;;1.33;0.20;;;12.50;5.20;;;;;;5126314;27;20516;-58
2024/04/01 02:11:12;;;;;;;0.60;0.30;;;12.60;1.00;;;;;;5107420;28;20440;-58
2024/04/01 02:13:39;;;;;;;0.30;0.20;;;12.50;1.00;;;;;;5113908;28;20444;-58
2024/04/01 02:16:09;;;;;;;0.70;0.30;;;12.50;1.00;;;;;;5114373;28;20436;-58
2024/04/01 02:18:36;;;;;;;0.40;0.20;;;12.40;1.00;;;;;;5114876;28;20445;-56
2024/04/01 02:21:03;;;;;;;1.90;0.30;;;12.40;13.50;;;;;;5108826;28;20456;-57
2024/04/01 02:23:32;;;;;;;0.43;0.27;;;12.50;8.80;;;;;;5111591;28;20450;-57
2024/04/01 02:26:01;;;;;;;5.20;0.30;;;12.60;1.00;;;;;;5114748;28;20906;-57
2024/04/01 02:28:29;;;;;;;0.30;0.10;;;12.50;1.00;;;;;;5113418;28;20827;-57
2024/04/01 02:30:55;;;;;;;0.50;0.20;;;12.40;1.00;;;;;;5114367;28;20449;-57
2024/04/01 02:33:23;;;;;;;4.83;0.30;;;12.50;1.00;;;;;;5115934;28;20455;-58
2024/04/01 02:35:50;;;;;;;0.80;0.20;;;12.60;1.00;;;;;;5103406;28;20852;-57
2024/04/01 02:38:18;;;;;;;0.50;0.20;;;12.60;1.00;;;;;;5115564;28;20439;-58
2024/04/01 02:40:44;;;;;;;3.33;0.30;;;12.70;1.00;;;;;;5114654;28;20447;-58
2024/04/01 02:43:11;;;;;;;0.63;0.20;;;12.70;1.00;;;;;;5115408;28;20513;-58
2024/04/01 02:45:38;;;;;;;0.40;0.20;;;12.60;1.00;;;;;;5115253;28;20436;-58
2024/04/01 02:48:05;;;;;;;0.50;0.30;;;12.70;1.00;;;;;;5113631;28;20913;-59
2024/04/01 02:50:33;;;;;;;0.33;0.13;;;12.70;1.00;;;;;;5109486;28;20712;-59
2024/04/01 02:53:00;;;;;;;0.40;0.20;;;12.70;1.00;;;;;;5113549;28;20714;-58
2024/04/01 02:55:27;;;;;;;1.57;0.20;;;12.70;1.00;;;;;;5113307;28;20974;-59
2024/04/01 02:57:54;;;;;;;0.47;0.20;;;12.60;1.00;;;;;;5113732;28;20437;-59
2024/04/01 03:00:22;;;;;;;0.70;0.20;;;12.60;1.00;;;;;;5114405;28;20481;-58
2024/04/01 03:02:50;;;;;;;0.50;0.20;;;12.60;1.00;;;;;;5115188;28;20510;-58
2024/04/01 03:05:17;;;;;;;0.30;0.17;;;12.60;1.00;;;;;;5115184;28;20501;-58
2024/04/01 03:07:47;;;;;;;0.30;0.20;;;12.60;1.00;;;;;;5114554;28;20527;-57
2024/04/01 03:10:13;;;;;;;0.40;0.20;;;12.60;1.00;;;;;;5129124;27;20560;-58
2024/04/01 03:12:42;;;;;;;0.30;0.20;;;12.50;1.00;;;;;;5135869;28;20465;-57
2024/04/01 03:15:08;;;;;;;1.47;0.30;;;12.40;1.00;;;;;;5135557;28;20459;-58
2024/04/01 03:17:36;;;;;;;0.93;0.20;;;12.20;1.00;;;;;;5135251;28;20904;-58
2024/04/01 03:20:05;;;;;;;1.13;0.23;;;12.10;9.00;;;;;;5128010;28;20869;-58
2024/04/01 03:22:32;;;;;;;2.17;0.27;;;12.10;18.90;;;;;;5130903;28;20923;-57
2024/04/01 03:24:59;;;;;;;2.00;0.30;;;12.10;14.80;;;;;;5131542;27;20441;-58
2024/04/01 03:27:26;;;;;;;0.93;0.30;;;12.10;14.20;;;;;;5118606;27;20448;-58
2024/04/01 03:29:52;;;;;;;0.70;0.30;;;12.10;13.40;;;;;;5119101;27;20488;-58
2024/04/01 03:32:19;;;;;;;0.90;0.30;;;12.10;14.30;;;;;;5127832;27;20691;-58
2024/04/01 03:34:48;;;;;;;0.40;0.20;;;12.20;16.80;;;;;;5119309;27;20436;-58
2024/04/01 03:37:15;;;;;;;0.40;0.20;;;12.30;7.80;;;;;;5120090;27;21091;-58
2024/04/01 03:39:44;;;;;;;5.50;0.30;;;12.30;1.00;;;;;;5134403;27;20783;-58
2024/04/01 03:42:13;;;;;;;0.40;0.20;;;12.40;1.00;;;;;;5141470;27;20554;-58
2024/04/01 03:44:40;;;;;;;2.10;0.20;;;12.30;1.00;;;;;;5141451;27;20859;-58
2024/04/01 03:47:07;;;;;;;2.00;0.30;;;12.50;1.00;;;;;;5132422;27;20444;-57
2024/04/01 03:49:34;;;;;;;0.60;0.17;;;12.40;1.00;;;;;;5123349;27;20957;-58
2024/04/01 03:52:00;;;;;;;0.50;0.30;;;12.30;1.00;;;;;;5127995;27;20865;-58
2024/04/01 03:54:27;;;;;;;0.70;0.20;;;12.20;1.00;;;;;;5119973;28;20452;-61
2024/04/01 03:56:53;;;;;;;1.13;0.20;;;12.20;4.80;;;;;;5129159;27;20453;-57
2024/04/01 03:59:23;;;;;;;0.30;0.10;;;12.20;99.90;;;;;;5128910;27;20444;-58
2024/04/01 04:01:49;;;;;;;0.80;0.30;;;12.00;6.30;;;;;;5135461;27;20440;-57
2024/04/01 04:04:16;;;;;;;0.30;0.20;;;12.00;25.50;;;;;;5140799;27;20494;-57
2024/04/01 04:06:43;;;;;;;0.30;0.10;;;12.00;99.90;;;;;;5140209;27;20928;-57
2024/04/01 04:09:15;;;;;;;1.30;0.30;;;12.00;99.90;;;;;;5133904;27;20582;-57
2024/04/01 04:11:42;;;;;;;0.47;0.20;;;12.00;32.10;;;;;;5138730;27;20853;-59
2024/04/01 04:14:09;;;;;;;6.33;0.30;;;12.00;99.90;;;;;;5139257;27;20440;-58
2024/04/01 04:16:36;;;;;;;1.67;0.20;;;12.00;99.90;;;;;;5137956;27;20868;-58
2024/04/01 04:19:03;;;;;;;0.80;0.20;;;12.10;99.90;;;;;;5139064;27;20439;-57
2024/04/01 04:21:29;;;;;;;1.20;0.40;;;12.10;99.90;;;;;;5134604;27;20452;-57
2024/04/01 04:23:56;;;;;;;0.50;0.20;;;12.30;99.90;;;;;;5138995;27;20478;-57
2024/04/01 04:26:22;;;;;;;0.40;0.20;;;12.40;99.90;;;;;;5138449;27;20448;-57
2024/04/01 04:28:49;;;;;;;0.50;0.27;;;12.40;99.90;;;;;;5138718;27;20575;-57
2024/04/01 04:31:16;;;;;;;0.60;0.30;;;12.50;99.90;;;;;;5138894;27;20448;-57
2024/04/01 04:33:44;;;;;;;0.40;0.30;;;12.50;99.90;;;;;;5138578;27;20888;-57
2024/04/01 04:36:10;;;;;;;0.50;0.27;;;12.40;99.90;;;;;;5136629;27;21076;-58
2024/04/01 04:38:37;;;;;;;0.30;0.20;;;12.30;99.90;;;;;;5136246;27;20447;-57
2024/04/01 04:41:04;;;;;;;0.70;0.20;;;12.40;99.90;;;;;;5126465;27;20443;-57
2024/04/01 04:43:31;;;;;;;0.53;0.20;;;12.50;99.90;;;;;;5139467;27;20457;-57
2024/04/01 04:45:59;;;;;;;0.40;0.20;;;12.50;99.90;;;;;;5139647;27;20443;-57
2024/04/01 04:48:26;;;;;;;0.50;0.20;;;12.60;99.90;;;;;;5139859;27;20544;-57
2024/04/01 04:50:55;;;;;;;0.40;0.20;;;12.50;99.90;;;;;;5139762;27;20795;-58
2024/04/01 04:53:21;;;;;;;0.50;0.20;;;12.50;99.90;;;;;;5139118;27;20439;-58
2024/04/01 04:55:48;;;;;;;0.90;0.20;;;12.60;99.90;;;;;;5139615;27;20471;-58
2024/04/01 04:58:14;;;;;;;0.50;0.30;;;12.50;99.90;;;;;;5139214;27;20444;-58
2024/04/01 05:00:41;;;;;;;0.30;0.10;;;12.60;99.90;;;;;;5138769;27;20448;-58
2024/04/01 05:03:07;;;;;;;0.30;0.20;;;12.60;99.90;;;;;;5139450;27;20444;-58
2024/04/01 05:05:34;;;;;;;0.47;0.20;;;12.60;99.90;;;;;;5138885;27;20527;-58
2024/04/01 05:08:03;;;;;;;1.37;0.20;;;12.50;99.90;;;;;;5128907;27;20440;-58
2024/04/01 05:10:31;;;;;;;1.03;0.20;;;12.60;99.90;;;;;;5139483;27;20476;-59
2024/04/01 05:12:57;;;;;;;0.40;0.30;;;12.50;99.90;;;;;;5139080;27;20490;-58
2024/04/01 05:15:24;;;;;;;0.43;0.20;;;12.50;99.90;;;;;;5129776;27;20458;-58
2024/04/01 05:17:50;;;;;;;1.53;0.30;;;12.40;99.90;;;;;;5138554;27;20448;-58
2024/04/01 05:20:17;;;;;;;0.40;0.20;;;12.30;1.00;;;;;;5139100;27;20443;-58
2024/04/01 05:22:43;;;;;;;0.80;0.30;;;12.10;1.00;;;;;;5138938;27;20439;-62
2024/04/01 05:25:12;;;;;;;0.50;0.20;;;12.20;99.90;;;;;;5137585;27;20455;-58
2024/04/01 05:27:38;;;;;;;0.30;0.20;;;12.00;99.90;;;;;;5138308;27;20460;-59
2024/04/01 05:30:09;;;;;;;0.40;0.20;;;12.10;1.00;;;;;;5138480;27;20504;-58
2024/04/01 05:32:36;;;;;;;0.40;0.20;;;12.20;99.90;;;;;;5133999;27;20455;-58
2024/04/01 05:35:05;;;;;;;0.40;0.20;;;12.40;99.90;;;;;;5137815;27;20444;-58
2024/04/01 05:37:31;;;;;;;0.30;0.20;;;12.40;99.90;;;;;;5138259;27;20440;-58
2024/04/01 05:39:58;;;;;;;3.13;0.20;;;12.40;1.00;;;;;;5138748;27;20780;-57
2024/04/01 05:42:26;;;;;;;0.50;0.30;;;12.40;99.90;;;;;;5138530;27;20853;-58
2024/04/01 05:44:54;;;;;;;0.70;0.20;;;12.30;1.00;;;;;;5138119;27;20509;-58
2024/04/01 05:47:20;;;;;;;0.50;0.33;;;12.30;99.90;;;;;;5136893;27;20868;-57
2024/04/01 05:49:47;;;;;;;2.30;0.30;;;12.50;99.90;;;;;;5138546;27;20475;-57
2024/04/01 05:52:13;;;;;;;1.20;0.23;;;12.20;1.00;;;;;;5138118;27;20451;-56
2024/04/01 05:54:40;;;;;;;0.93;0.30;;;12.20;19.50;;;;;;5139140;27;20456;-56
2024/04/01 05:57:06;;;;;;;0.47;0.30;;;12.20;26.40;;;;;;5138369;27;20928;-55
2024/04/01 05:59:34;;;;;;;0.40;0.20;;;12.20;18.80;;;;;;5138201;27;20734;-55
2024/04/01 06:02:01;;;;;;;0.53;0.30;;;12.10;29.10;;;;;;5137945;27;20724;-56
2024/04/01 06:04:28;;;;;;;1.10;0.30;;;12.10;27.70;;;;;;5137918;27;20440;-54
2024/04/01 06:06:54;;;;;;;0.60;0.37;;;12.00;44.10;;;;;;5137741;27;20508;-55
2024/04/01 06:09:21;;;;;;;0.67;0.30;;;11.90;56.30;;;;;;5137171;27;20468;-53
2024/04/01 06:11:47;;;;;;;0.63;0.30;;;11.90;88.80;;;;;;5137033;27;20722;-55
2024/04/01 06:14:14;;;;;;;0.50;0.30;;;11.80;85.30;;;;;;5137865;27;20471;-55
2024/04/01 06:16:42;;;;;;;0.43;0.20;;;11.70;87.70;;;;;;5137454;27;20440;-54
2024/04/01 06:19:09;;;;;;;0.60;0.30;;;11.80;99.90;;;;;;5138481;27;20446;-53
2024/04/01 06:21:34;;;;;;;0.60;0.20;;;12.00;93.90;;;;;;5137390;27;20452;-55
2024/04/01 06:24:02;;;;;;;0.60;0.20;;;12.00;99.90;;;;;;5138007;27;20444;-54
2024/04/01 06:26:28;;;;;;;0.30;0.20;;;12.20;99.90;;;;;;5121616;27;20462;-51
2024/04/01 06:28:56;;;;;;;0.30;0.20;;;12.10;99.90;;;;;;5137960;27;20471;-54
2024/04/01 06:31:22;;;;;;;1.17;0.20;;;12.00;99.90;;;;;;5137303;28;20722;-55
2024/04/01 06:33:50;;;;;;;0.47;0.20;;;12.10;99.90;;;;;;5137416;28;20444;-55
2024/04/01 06:36:16;;;;;;;0.70;0.30;;;12.00;99.90;;;;;;5138091;28;20448;-55
2024/04/01 06:38:43;;;;;;;0.37;0.20;;;11.90;99.90;;;;;;5135622;28;20459;-52
2024/04/01 06:41:09;;;;;;;0.40;0.20;;;12.00;99.90;;;;;;5136586;27;20444;-55
2024/04/01 06:43:36;;;;;;;0.30;0.13;;;12.00;99.90;;;;;;5136334;27;20600;-52
2024/04/01 06:46:02;;;;;;;0.30;0.20;;;11.90;99.90;;;;;;5137246;27;21315;-50
2024/04/01 06:48:29;;;;;;;0.37;0.20;;;11.70;99.90;;;;;;5136595;27;20713;-55
2024/04/01 06:50:58;;;;;;;0.30;0.20;;;11.50;99.90;;;;;;5134831;27;20558;-51
2024/04/01 06:53:25;;;;;;;0.40;0.20;;;11.50;99.90;;;;;;5136355;27;20455;-51
2024/04/01 06:55:51;;;;;;;0.33;0.10;;;11.70;99.90;;;;;;5135578;27;20862;-54
2024/04/01 06:58:18;;;;;;;0.37;0.20;;;11.70;99.90;;;;;;5137189;27;20444;-53
2024/04/01 07:00:44;;;;;;;0.60;0.30;;;11.80;99.90;;;;;;5140228;27;20454;-54
2024/04/01 07:03:11;;;;;;;0.40;0.20;;;11.80;99.90;;;;;;5134617;27;20444;-52
2024/04/01 07:05:38;;;;;;;0.53;0.30;;;11.60;99.90;;;;;;5134796;27;20458;-53
2024/04/01 07:08:07;;;;;;;0.40;0.10;;;11.70;99.90;;;;;;5141866;27;20691;-53
2024/04/01 07:10:33;;;;;;;0.40;0.20;;;11.60;99.90;;;;;;5126521;27;20562;-54
2024/04/01 07:13:00;;;;;;;0.90;0.30;;;11.60;99.90;;;;;;5124259;27;20440;-52
2024/04/01 07:15:26;;;;;;;0.80;0.20;;;11.50;99.90;;;;;;5134704;27;20448;-55
2024/04/01 07:17:53;;;;;;;0.40;0.20;;;11.30;99.90;;;;;;5131823;27;20537;-54
2024/04/01 07:20:19;;;;;;;0.30;0.10;;;11.20;99.90;;;;;;5130868;27;20444;-54
2024/04/01 07:22:46;;;;;;;0.40;0.10;;;11.20;99.90;;;;;;5127919;27;20433;-52
2024/04/01 07:25:13;;;;;;;0.30;0.10;;;11.40;99.90;;;;;;5140650;27;20439;-52
2024/04/01 07:27:40;;;;;;;0.30;0.10;;;11.40;99.90;;;;;;5140033;27;20455;-53
2024/04/01 07:30:07;;;;;;;0.30;0.20;;;11.40;99.90;;;;;;5127400;27;20484;-54
2024/04/01 07:32:35;;;;;;;0.40;0.20;;;11.40;99.90;;;;;;5141651;27;20550;-54
2024/04/01 07:35:02;;;;;;;0.40;0.20;;;11.40;99.90;;;;;;5138296;27;20486;-54
2024/04/01 07:37:30;;;;;;;0.43;0.13;;;11.50;99.90;;;;;;5124255;27;20436;-53
2024/04/01 07:39:56;;;;;;;0.30;0.10;;;11.60;99.90;;;;;;5136778;27;20538;-53
2024/04/01 07:42:25;;;;;;;0.40;0.20;;;11.50;99.90;;;;;;5123707;27;20444;-51
2024/04/01 07:44:52;;;;;;;0.50;0.23;;;11.50;99.90;;;;;;5120942;27;20509;-54
2024/04/01 07:47:19;;;;;;;0.30;0.10;;;11.50;99.90;;;;;;5119805;27;20444;-52
2024/04/01 07:49:45;;;;;;;0.33;0.20;;;11.40;99.90;;;;;;5129788;27;20479;-52
2024/04/01 07:52:13;;;;;;;1.60;0.10;;;11.40;99.90;;;;;;5139388;27;20458;-54
2024/04/01 07:54:39;;;;;;;0.27;0.10;;;11.30;99.90;;;;;;5130086;27;20708;-52
2024/04/01 07:57:06;;;;;;;1.37;0.17;;;11.30;99.90;;;;;;5120715;27;20806;-55
2024/04/01 07:59:34;;;;;;;0.20;0.10;;;11.30;99.90;;;;;;5123944;27;20448;-52
2024/04/01 08:02:01;;;;;;;0.40;0.10;;;11.50;99.90;;;;;;5140140;27;20435;-53
2024/04/01 08:04:27;;;;;;;0.30;0.10;;;11.60;99.90;;;;;;5131989;27;20445;-53
2024/04/01 08:06:55;;;;;;;0.30;0.10;;;11.70;99.90;;;;;;5124582;27;20448;-55
2024/04/01 08:09:21;;;;;;;2.10;0.13;;;11.60;99.90;;;;;;5133647;27;20583;-51
2024/04/01 08:11:49;;;;;;;0.30;0.10;;;11.60;99.90;;;;;;5138497;27;20787;-53
2024/04/01 08:14:15;;;;;;;0.30;0.10;;;11.60;99.90;;;;;;5140175;27;20860;-53
2024/04/01 08:16:44;;;;;;;0.30;0.10;;;11.50;99.90;;;;;;5139744;27;20879;-52
2024/04/01 08:19:11;;;;;;;0.30;0.10;;;11.50;99.90;;;;;;5139173;27;20752;-55
2024/04/01 08:21:38;;;;;;;0.30;0.10;;;11.40;99.90;;;;;;5137101;27;20446;-54
2024/04/01 08:24:04;;;;;;;0.30;0.10;;;11.30;99.90;;;;;;5139279;27;20846;-52
2024/04/01 08:26:31;;;;;;;0.23;0.10;;;11.20;99.90;;;;;;5138489;27;20443;-50
2024/04/01 08:28:57;;;;;;;0.30;0.10;;;11.00;99.90;;;;;;5133712;27;20487;-49
2024/04/01 08:31:24;;;;;;;0.40;0.20;;;11.10;99.90;;;;;;5128716;27;20865;-52
2024/04/01 08:33:52;;;;;;;0.30;0.10;;;11.10;99.90;;;;;;5133148;27;20456;-50
2024/04/01 08:36:19;;;;;;;0.50;0.10;;;11.10;99.90;;;;;;5137888;27;20464;-52
2024/04/01 08:38:45;;;;;;;0.20;0.10;;;11.40;99.90;;;;;;5138435;27;20558;-53
2024/04/01 08:41:15;;;;;;;0.40;0.10;;;11.50;99.90;;;;;;5138365;27;20454;-52
2024/04/01 08:43:47;;;;;;;0.30;0.10;;;11.60;99.90;;;;;;5138463;27;20436;-54
2024/04/01 08:46:15;;;;;;;0.30;0.10;;;11.60;99.90;;;;;;5137990;27;20467;-54
2024/04/01 08:48:44;;;;;;;0.23;0.10;;;11.60;99.90;;;;;;5139009;27;20444;-53
2024/04/01 08:51:19;;;;;;;0.30;0.10;;;11.60;99.90;;;;;;5138792;27;20464;-53
2024/04/01 08:54:01;;;;;;;0.30;0.10;;;11.70;99.90;;;;;;5138062;27;20546;-54
2024/04/01 08:56:30;;;;;;;0.20;0.10;;;11.50;99.90;;;;;;5138523;27;20448;-56
2024/04/01 08:58:57;;;;;;;0.20;0.10;;;11.50;99.90;;;;;;5136410;27;20444;-54
2024/04/01 09:01:24;;;;;;;0.30;0.10;;;11.60;99.90;;;;;;5126422;27;20472;-57
2024/04/01 09:03:50;;;;;;;0.30;0.10;;;11.60;99.90;;;;;;5136920;27;20444;-56
2024/04/01 09:06:20;;;;;;;0.30;0.10;;;11.60;99.90;;;;;;5129123;27;20824;-58
2024/04/01 09:08:48;;;;;;;0.73;0.10;;;11.80;99.90;;;;;;5137269;27;21002;-56
2024/04/01 09:11:15;;;;;;;0.20;0.10;;;11.70;99.90;;;;;;5137032;27;20834;-56
2024/04/01 09:13:41;;;;;;;0.30;0.10;;;12.00;99.90;;;;;;5137948;27;20834;-57
2024/04/01 09:16:09;;;;;;;0.20;0.00;;;12.00;99.90;;;;;;5136708;27;20439;-57
2024/04/01 09:18:36;;;;;;;0.30;0.10;;;12.00;99.90;;;;;;5138053;27;20452;-58
2024/04/01 09:21:04;;;;;;;0.30;0.10;;;11.90;99.90;;;;;;5136638;27;20477;-58
2024/04/01 09:23:31;;;;;;;0.20;0.10;;;12.10;99.90;;;;;;5137082;27;20833;-59
2024/04/01 09:25:59;;;;;;;0.20;0.00;;;12.30;99.90;;;;;;5136640;27;21061;-59
2024/04/01 09:28:25;;;;;;;0.30;0.10;;;12.50;99.90;;;;;;5137208;27;21039;-59
2024/04/01 09:30:52;;;;;;;0.20;0.10;;;12.40;99.90;;;;;;5137317;27;20779;-58
2024/04/01 09:33:19;;;;;;;0.20;0.10;;;12.40;99.90;;;;;;5137950;27;20448;-59
2024/04/01 09:35:48;;;;;;;0.20;0.10;;;12.50;99.90;;;;;;5131423;27;20448;-59
2024/04/01 09:38:14;;;;;;;0.20;0.07;;;12.50;99.90;;;;;;5138352;27;20432;-59
2024/04/01 09:40:43;;;;;;;0.30;0.10;;;12.50;1.00;;;;;;5137619;27;20420;-59
2024/04/01 09:43:09;;;;;;;0.30;0.10;;;12.50;99.90;;;;;;5136842;27;20443;-59
2024/04/01 09:45:39;;;;;;;0.20;0.10;;;12.40;1.00;;;;;;5136958;27;20884;-59
2024/04/01 09:48:08;;;;;;;0.20;0.10;;;12.30;1.00;;;;;;5133873;27;20440;-59
2024/04/01 09:50:38;;;;;;;0.30;0.10;;;12.10;99.90;;;;;;5137566;27;20482;-62
2024/04/01 09:53:04;;;;;;;0.70;0.10;;;12.20;99.90;;;;;;5137602;27;20436;-61
2024/04/01 09:55:34;;;;;;;0.30;0.10;;;12.20;1.00;;;;;;5136434;27;20916;-61
2024/04/01 09:58:35;;;;;;;0.30;0.10;;;12.10;99.90;;;;;;5137755;27;20456;-61
2024/04/01 10:01:20;;;;;;;3.40;0.10;;;11.90;99.90;;;;;;5136691;27;20918;-61
2024/04/01 10:04:17;;;;;;;0.20;0.00;;;12.00;1.00;;;;;;5132331;27;20444;-61
2024/04/01 10:07:37;;;;;;;0.30;0.10;;;11.90;99.90;;;;;;5136788;27;20439;-61
2024/04/01 10:10:33;;;;;;;0.30;0.10;;;12.10;99.90;;;;;;5021252;28;20540;-62
2024/04/01 10:13:24;;;;;;;0.20;0.10;;;12.10;99.90;;;;;;5031264;28;20464;-61
2024/04/01 10:16:17;;;;;;;0.20;0.00;;;12.20;99.90;;;;;;5141517;27;20727;-61
2024/04/01 10:19:08;;;;;;;0.30;0.10;;;12.50;99.90;;;;;;5131327;27;20473;-60
2024/04/01 10:22:06;;;;;;;0.20;0.10;;;12.80;99.90;;;;;;5123977;27;20454;-60
2024/04/01 10:25:04;;;;;;;0.20;0.10;;;12.90;99.90;;;;;;5127628;27;20622;-60
2024/04/01 10:28:16;;;;;;;0.40;0.10;;;12.70;99.90;;;;;;5130427;27;20446;-60
2024/04/01 10:31:17;;;;;;;0.20;0.00;;;12.50;99.90;;;;;;5085740;28;20801;-60
2024/04/01 10:34:33;;;;;;;0.20;0.10;;;12.40;99.90;;;;;;5126632;27;20462;-60
2024/04/01 10:37:30;;;;;;;0.30;0.10;;;12.20;99.90;;;;;;5129765;28;20451;-60
2024/04/01 10:40:05;;;;;;;0.30;0.10;;;12.00;99.90;;;;;;5122970;27;20443;-60
2024/04/01 10:43:07;;;;;;;0.20;0.00;;;12.10;99.90;;;;;;5136828;27;20475;-60
2024/04/01 10:46:19;;;;;;;0.20;0.10;;;12.10;1.00;;;;;;5136369;28;20853;-59
2024/04/01 10:49:02;;;;;;;0.30;0.10;;;12.20;1.00;;;;;;5081351;28;20454;-59
2024/04/01 10:51:59;;;;;;;0.30;0.10;;;12.10;99.90;;;;;;5136185;28;20451;-59
2024/04/01 10:54:34;;;;;;;0.20;0.10;;;12.20;99.90;;;;;;5137732;28;20451;-59
2024/04/01 10:57:55;;;;;;;0.20;0.10;;;12.20;99.90;;;;;;5137854;27;20509;-59
2024/04/01 11:00:43;;;;;;;0.30;0.10;;;12.50;99.90;;;;;;5003717;28;20785;-59
2024/04/01 11:03:55;;;;;;;0.30;0.10;;;12.40;99.90;;;;;;5132722;28;20456;-59
2024/04/01 11:06:33;;;;;;;0.30;0.10;;;12.20;99.90;;;;;;5135417;28;20447;-59
2024/04/01 11:09:17;;;;;;;0.20;0.10;;;12.40;99.90;;;;;;5137477;28;20467;-59
2024/04/01 11:11:52;;;;;;;0.27;0.10;;;12.40;99.90;;;;;;5128774;28;20460;-60
2024/04/01 11:14:20;;;;;;;0.37;0.10;;;12.60;99.90;;;;;;5131196;28;20462;-60
2024/04/01 11:16:53;;;;;;;0.20;0.00;;;12.70;99.90;;;;;;5130747;28;20493;-59
2024/04/01 11:19:40;;;;;;;0.30;0.10;;;12.70;99.90;;;;;;5130344;28;20439;-60
2024/04/01 11:22:13;;;;;;;0.63;0.10;;;12.70;99.90;;;;;;5130570;28;20440;-59
2024/04/01 11:24:55;;;;;;;0.30;0.10;;;12.80;99.90;;;;;;5135228;28;20436;-59
2024/04/01 11:27:37;;;;;;;0.37;0.10;;;12.80;99.90;;;;;;5132204;28;20452;-60
2024/04/01 11:30:18;;;;;;;0.30;0.10;;;12.70;99.90;;;;;;5129041;28;20482;-59
2024/04/01 11:32:49;;;;;;;0.30;0.10;;;12.70;1.00;;;;;;5119308;28;20515;-59
2024/04/01 11:35:27;;;;;;;0.53;0.13;;;12.80;99.90;;;;;;5134332;28;20873;-59
2024/04/01 11:38:10;;;;;;;0.30;0.10;;;13.10;99.90;;;;;;5131499;28;20711;-59
2024/04/01 11:40:39;;;;;;;0.20;0.10;;;13.20;99.90;;;;;;5136110;28;20496;-59
2024/04/01 11:43:09;;;;;;;0.20;0.10;;;13.00;99.90;;;;;;5134752;28;20448;-59
2024/04/01 11:45:41;;;;;;;0.30;0.10;;;13.10;99.90;;;;;;5123900;27;20436;-59
2024/04/01 11:48:08;;;;;;;0.20;0.10;;;13.10;99.90;;;;;;5137130;27;20444;-58
2024/04/01 11:50:35;;;;;;;0.20;0.10;;;13.10;99.90;;;;;;5125290;27;20871;-58
2024/04/01 11:53:03;;;;;;;0.20;0.00;;;13.10;99.90;;;;;;5119095;27;20521;-59
2024/04/01 11:55:31;;;;;;;0.20;0.10;;;13.10;99.90;;;;;;5118307;27;20934;-59
2024/04/01 11:58:08;;;;;;;0.20;0.10;;;12.90;99.90;;;;;;5118591;27;20866;-59
2024/04/01 12:00:35;;;;;;;0.30;0.10;;;12.80;99.90;;;;;;5129343;27;20527;-59
2024/04/01 12:03:02;;;;;;;0.20;0.10;;;12.60;99.90;;;;;;5132962;27;20463;-60
2024/04/01 12:05:29;;;;;;;0.30;0.10;;;12.50;99.90;;;;;;5119164;28;20444;-58
2024/04/01 12:07:56;;;;;;;0.30;0.10;;;12.70;99.90;;;;;;5130861;27;20436;-58
2024/04/01 12:10:23;;;;;;;0.30;0.10;;;13.00;99.90;;;;;;5139958;27;20578;-59
2024/04/01 12:12:50;;;;;;;0.20;0.10;;;13.20;99.90;;;;;;5125476;27;20537;-58
2024/04/01 12:15:19;;;;;;;0.30;0.10;;;13.40;99.90;;;;;;5119780;27;20456;-59
2024/04/01 12:17:46;;;;;;;0.20;0.00;;;13.40;99.90;;;;;;5117361;28;20713;-59
2024/04/01 12:20:13;;;;;;;0.30;0.10;;;13.50;99.90;;;;;;5120843;27;20444;-59
2024/04/01 12:22:40;;;;;;;0.27;0.10;;;13.50;99.90;;;;;;5118584;27;20437;-59
2024/04/01 12:25:09;;;;;;;0.50;0.10;;;13.60;99.90;;;;;;5134060;27;21016;-58
2024/04/01 12:27:37;;;;;;;0.20;0.10;;;13.40;99.90;;;;;;5134611;27;20451;-60
2024/04/01 12:30:06;;;;;;;0.20;0.10;;;13.40;99.90;;;;;;5134766;27;20475;-60
2024/04/01 12:32:40;;;;;;;0.40;0.10;;;13.50;99.90;;;;;;5130583;27;20444;-60
2024/04/01 12:35:10;;;;;;;0.20;0.10;;;13.90;99.90;;;;;;5119613;27;20484;-60
2024/04/01 12:37:39;;;;;;;0.20;0.10;;;13.80;99.90;;;;;;5125016;27;20440;-62
2024/04/01 12:40:08;;;;;;;0.20;0.00;;;14.00;99.90;;;;;;5119360;27;20440;-59
2024/04/01 12:42:35;;;;;;;0.40;0.10;;;14.00;99.90;;;;;;5119179;27;20470;-61
2024/04/01 12:45:04;;;;;;;0.20;0.10;;;13.70;99.90;;;;;;5140058;27;20452;-61
2024/04/01 12:47:30;;;;;;;0.30;0.10;;;13.60;99.90;;;;;;5131252;27;20444;-59
2024/04/01 12:50:01;;;;;;;0.20;0.00;;;13.70;99.90;;;;;;5121335;27;20558;-60
2024/04/01 12:52:49;;;;;;;0.20;0.00;;;13.80;99.90;;;;;;5126631;27;20500;-60
2024/04/01 12:55:22;;;;;;;0.20;0.10;;;13.80;99.90;;;;;;5121604;27;20445;-59
2024/04/01 12:58:03;;;;;;;0.30;0.10;;;14.00;99.90;;;;;;5138859;27;20504;-60
2024/04/01 13:00:36;;;;;;;0.30;0.10;;;14.10;99.90;;;;;;5135685;27;20861;-59
2024/04/01 13:03:33;;;;;;;0.30;0.10;;;14.10;99.90;;;;;;5129753;27;20447;-60
2024/04/01 13:06:11;;;;;;;0.20;0.10;;;13.90;99.90;;;;;;5119684;27;20441;-60